sensor_id;sensor_type;location;lat;lon;timestamp;pressure;altitude;pressure_sealevel;temperature;humidity
10992;BME280;5549;47.028;15.514;2022-07-29T00:00:08;96552.41;;;23.71;50.91
10992;BME280;5549;47.028;15.514;2022-07-29T00:02:38;96539.00;;;23.71;51.00
10992;BME280;5549;47.028;15.514;2022-07-29T00:05:07;96555.72;;;23.73;50.91
10992;BME280;5549;47.028;15.514;2022-07-29T00:07:35;96550.94;;;23.75;50.90
10992;BME280;5549;47.028;15.514;2022-07-29T00:10:04;96552.59;;;23.76;50.87
10992;BME280;5549;47.028;15.514;2022-07-29T00:12:32;96548.88;;;23.77;51.04
10992;BME280;5549;47.028;15.514;2022-07-29T00:15:09;96553.03;;;23.73;53.20
10992;BME280;5549;47.028;15.514;2022-07-29T00:17:40;96551.19;;;23.67;54.15
10992;BME280;5549;47.028;15.514;2022-07-29T00:20:09;96554.28;;;23.64;54.58
10992;BME280;5549;47.028;15.514;2022-07-29T00:22:37;96554.09;;;23.59;54.39
10992;BME280;5549;47.028;15.514;2022-07-29T00:25:06;96553.88;;;23.54;53.37
10992;BME280;5549;47.028;15.514;2022-07-29T00:27:37;96554.28;;;23.51;53.42
10992;BME280;5549;47.028;15.514;2022-07-29T00:30:08;96551.00;;;23.49;54.36
10992;BME280;5549;47.028;15.514;2022-07-29T00:32:38;96556.16;;;23.44;54.65
10992;BME280;5549;47.028;15.514;2022-07-29T00:35:08;96548.53;;;23.41;55.24
10992;BME280;5549;47.028;15.514;2022-07-29T00:38:08;96551.84;;;23.36;55.39
10992;BME280;5549;47.028;15.514;2022-07-29T00:40:37;96552.06;;;23.34;55.85
10992;BME280;5549;47.028;15.514;2022-07-29T00:43:05;96551.44;;;23.32;55.95
10992;BME280;5549;47.028;15.514;2022-07-29T00:45:35;96550.63;;;23.32;56.37
10992;BME280;5549;47.028;15.514;2022-07-29T00:48:03;96541.16;;;23.29;56.37
10992;BME280;5549;47.028;15.514;2022-07-29T00:50:34;96548.16;;;23.30;56.12
10992;BME280;5549;47.028;15.514;2022-07-29T00:53:06;96543.63;;;23.31;55.62
10992;BME280;5549;47.028;15.514;2022-07-29T00:55:38;96543.41;;;23.32;55.78
10992;BME280;5549;47.028;15.514;2022-07-29T00:58:07;96543.59;;;23.38;56.08
10992;BME280;5549;47.028;15.514;2022-07-29T01:00:37;96540.31;;;23.42;56.52
10992;BME280;5549;47.028;15.514;2022-07-29T01:03:08;96538.03;;;23.46;56.40
10992;BME280;5549;47.028;15.514;2022-07-29T01:05:40;96536.56;;;23.50;56.13
10992;BME280;5549;47.028;15.514;2022-07-29T01:08:12;96539.03;;;23.51;56.01
10992;BME280;5549;47.028;15.514;2022-07-29T01:10:42;96536.16;;;23.53;55.89
10992;BME280;5549;47.028;15.514;2022-07-29T01:13:12;96539.47;;;23.55;55.89
10992;BME280;5549;47.028;15.514;2022-07-29T01:15:49;96531.00;;;23.58;55.44
10992;BME280;5549;47.028;15.514;2022-07-29T01:18:28;96538.63;;;23.61;55.53
10992;BME280;5549;47.028;15.514;2022-07-29T01:21:27;96532.22;;;23.62;55.16
10992;BME280;5549;47.028;15.514;2022-07-29T01:24:39;96532.84;;;23.64;55.04
10992;BME280;5549;47.028;15.514;2022-07-29T01:27:35;96530.97;;;23.64;54.95
10992;BME280;5549;47.028;15.514;2022-07-29T01:30:11;96542.97;;;23.62;54.99
10992;BME280;5549;47.028;15.514;2022-07-29T01:32:40;96540.69;;;23.59;55.26
10992;BME280;5549;47.028;15.514;2022-07-29T01:35:18;96539.47;;;23.55;54.96
10992;BME280;5549;47.028;15.514;2022-07-29T01:37:52;96548.94;;;23.51;54.99
10992;BME280;5549;47.028;15.514;2022-07-29T01:40:25;96545.63;;;23.49;55.13
10992;BME280;5549;47.028;15.514;2022-07-29T01:42:58;96541.72;;;23.45;55.44
10992;BME280;5549;47.028;15.514;2022-07-29T01:45:38;96538.03;;;23.46;55.25
10992;BME280;5549;47.028;15.514;2022-07-29T01:48:15;96526.47;;;23.45;55.62
10992;BME280;5549;47.028;15.514;2022-07-29T01:50:50;96527.50;;;23.44;55.63
10992;BME280;5549;47.028;15.514;2022-07-29T01:53:25;96535.34;;;23.46;55.36
10992;BME280;5549;47.028;15.514;2022-07-29T01:55:57;96520.72;;;23.42;55.41
10992;BME280;5549;47.028;15.514;2022-07-29T01:58:31;96518.88;;;23.35;55.10
10992;BME280;5549;47.028;15.514;2022-07-29T02:01:04;96515.81;;;23.25;55.21
10992;BME280;5549;47.028;15.514;2022-07-29T02:03:33;96517.06;;;23.10;55.80
10992;BME280;5549;47.028;15.514;2022-07-29T02:06:04;96510.50;;;22.99;55.97
10992;BME280;5549;47.028;15.514;2022-07-29T02:08:37;96510.69;;;22.91;56.30
10992;BME280;5549;47.028;15.514;2022-07-29T02:11:07;96511.53;;;22.85;56.32
10992;BME280;5549;47.028;15.514;2022-07-29T02:13:38;96503.28;;;22.80;56.32
10992;BME280;5549;47.028;15.514;2022-07-29T02:16:12;96508.41;;;22.75;56.46
10992;BME280;5549;47.028;15.514;2022-07-29T02:18:42;96512.13;;;22.73;56.23
10992;BME280;5549;47.028;15.514;2022-07-29T02:21:16;96504.50;;;22.70;56.58
10992;BME280;5549;47.028;15.514;2022-07-29T02:23:48;96509.84;;;22.70;56.25
10992;BME280;5549;47.028;15.514;2022-07-29T02:26:17;96510.06;;;22.69;56.53
10992;BME280;5549;47.028;15.514;2022-07-29T02:28:46;96510.47;;;22.66;57.17
10992;BME280;5549;47.028;15.514;2022-07-29T02:31:17;96496.69;;;22.62;57.50
10992;BME280;5549;47.028;15.514;2022-07-29T02:33:47;96502.44;;;22.59;57.84
10992;BME280;5549;47.028;15.514;2022-07-29T02:36:18;96504.91;;;22.54;57.74
10992;BME280;5549;47.028;15.514;2022-07-29T02:38:48;96499.94;;;22.51;57.93
10992;BME280;5549;47.028;15.514;2022-07-29T02:41:23;96501.16;;;22.49;57.88
10992;BME280;5549;47.028;15.514;2022-07-29T02:43:56;96495.59;;;22.44;57.64
10992;BME280;5549;47.028;15.514;2022-07-29T02:46:30;96495.19;;;22.40;57.38
10992;BME280;5549;47.028;15.514;2022-07-29T02:49:05;96492.94;;;22.37;57.19
10992;BME280;5549;47.028;15.514;2022-07-29T02:51:43;96493.34;;;22.34;57.45
10992;BME280;5549;47.028;15.514;2022-07-29T02:54:24;96491.88;;;22.31;57.21
10992;BME280;5549;47.028;15.514;2022-07-29T02:57:00;96500.75;;;22.32;57.25
10992;BME280;5549;47.028;15.514;2022-07-29T02:59:34;96494.16;;;22.28;57.43
10992;BME280;5549;47.028;15.514;2022-07-29T03:02:05;96508.56;;;22.27;57.52
10992;BME280;5549;47.028;15.514;2022-07-29T03:04:35;96503.59;;;22.24;58.13
10992;BME280;5549;47.028;15.514;2022-07-29T03:07:06;96495.38;;;22.19;58.28
10992;BME280;5549;47.028;15.514;2022-07-29T03:09:34;96509.34;;;22.14;58.44
10992;BME280;5549;47.028;15.514;2022-07-29T03:12:07;96507.69;;;22.06;58.99
10992;BME280;5549;47.028;15.514;2022-07-29T03:14:45;96505.38;;;21.97;59.50
10992;BME280;5549;47.028;15.514;2022-07-29T03:17:23;96495.28;;;21.92;59.43
10992;BME280;5549;47.028;15.514;2022-07-29T03:19:52;96492.81;;;21.91;59.30
10992;BME280;5549;47.028;15.514;2022-07-29T03:22:27;96493.22;;;21.88;59.36
10992;BME280;5549;47.028;15.514;2022-07-29T03:25:08;96491.75;;;21.85;59.47
10992;BME280;5549;47.028;15.514;2022-07-29T03:27:41;96492.38;;;21.81;59.87
10992;BME280;5549;47.028;15.514;2022-07-29T03:30:15;96491.72;;;21.72;60.00
10992;BME280;5549;47.028;15.514;2022-07-29T03:32:45;96503.84;;;21.68;60.35
10992;BME280;5549;47.028;15.514;2022-07-29T03:35:16;96498.88;;;21.65;60.44
10992;BME280;5549;47.028;15.514;2022-07-29T03:37:48;96493.53;;;21.65;59.98
10992;BME280;5549;47.028;15.514;2022-07-29T03:40:21;96494.38;;;21.65;60.14
10992;BME280;5549;47.028;15.514;2022-07-29T03:42:54;96496.63;;;21.68;59.92
10992;BME280;5549;47.028;15.514;2022-07-29T03:45:44;96501.59;;;21.71;59.54
10992;BME280;5549;47.028;15.514;2022-07-29T03:48:21;96503.84;;;21.74;59.76
10992;BME280;5549;47.028;15.514;2022-07-29T03:50:50;96502.00;;;21.75;59.78
10992;BME280;5549;47.028;15.514;2022-07-29T03:53:21;96502.00;;;21.75;59.87
10992;BME280;5549;47.028;15.514;2022-07-29T03:55:54;96500.16;;;21.75;60.15
10992;BME280;5549;47.028;15.514;2022-07-29T03:58:26;96499.34;;;21.75;60.15
10992;BME280;5549;47.028;15.514;2022-07-29T04:00:57;96502.00;;;21.75;60.24
10992;BME280;5549;47.028;15.514;2022-07-29T04:03:28;96499.34;;;21.75;60.21
10992;BME280;5549;47.028;15.514;2022-07-29T04:06:01;96502.84;;;21.75;60.24
10992;BME280;5549;47.028;15.514;2022-07-29T04:08:32;96511.88;;;21.74;60.55
10992;BME280;5549;47.028;15.514;2022-07-29T04:11:03;96504.88;;;21.73;60.87
10992;BME280;5549;47.028;15.514;2022-07-29T04:13:32;96502.59;;;21.70;61.06
10992;BME280;5549;47.028;15.514;2022-07-29T04:16:00;96504.25;;;21.71;61.19
10992;BME280;5549;47.028;15.514;2022-07-29T04:18:29;96501.78;;;21.70;61.06
10992;BME280;5549;47.028;15.514;2022-07-29T04:20:58;96505.06;;;21.65;60.96
10992;BME280;5549;47.028;15.514;2022-07-29T04:23:26;96500.31;;;21.61;61.30
10992;BME280;5549;47.028;15.514;2022-07-29T04:25:54;96498.84;;;21.58;61.14
10992;BME280;5549;47.028;15.514;2022-07-29T04:28:23;96499.69;;;21.59;61.16
10992;BME280;5549;47.028;15.514;2022-07-29T04:30:55;96502.75;;;21.56;61.33
10992;BME280;5549;47.028;15.514;2022-07-29T04:33:23;96503.38;;;21.58;61.20
10992;BME280;5549;47.028;15.514;2022-07-29T04:35:52;96510.16;;;21.60;61.69
10992;BME280;5549;47.028;15.514;2022-07-29T04:38:19;96517.38;;;21.60;61.53
10992;BME280;5549;47.028;15.514;2022-07-29T04:40:48;96517.78;;;21.63;61.91
10992;BME280;5549;47.028;15.514;2022-07-29T04:43:15;96518.66;;;21.70;61.69
10992;BME280;5549;47.028;15.514;2022-07-29T04:45:45;96517.03;;;21.76;61.94
10992;BME280;5549;47.028;15.514;2022-07-29T04:48:12;96520.31;;;21.78;62.08
10992;BME280;5549;47.028;15.514;2022-07-29T04:50:43;96519.06;;;21.74;62.44
10992;BME280;5549;47.028;15.514;2022-07-29T04:53:13;96524.00;;;21.77;62.79
10992;BME280;5549;47.028;15.514;2022-07-29T04:55:43;96524.03;;;21.84;62.77
10992;BME280;5549;47.028;15.514;2022-07-29T04:58:11;96522.00;;;21.92;62.50
10992;BME280;5549;47.028;15.514;2022-07-29T05:00:39;96532.53;;;22.00;62.10
10992;BME280;5549;47.028;15.514;2022-07-29T05:03:07;96519.41;;;22.05;61.80
10992;BME280;5549;47.028;15.514;2022-07-29T05:05:38;96518.81;;;22.10;62.01
10992;BME280;5549;47.028;15.514;2022-07-29T05:08:05;96521.69;;;22.08;62.06
10992;BME280;5549;47.028;15.514;2022-07-29T05:10:35;96510.97;;;22.08;62.08
10992;BME280;5549;47.028;15.514;2022-07-29T05:13:07;96517.78;;;22.11;62.18
10992;BME280;5549;47.028;15.514;2022-07-29T05:15:35;96523.56;;;22.15;61.89
10992;BME280;5549;47.028;15.514;2022-07-29T05:18:06;96525.41;;;22.21;61.97
10992;BME280;5549;47.028;15.514;2022-07-29T05:20:34;96521.50;;;22.23;61.77
10992;BME280;5549;47.028;15.514;2022-07-29T05:23:02;96522.75;;;22.27;61.59
10992;BME280;5549;47.028;15.514;2022-07-29T05:25:29;96531.63;;;22.34;61.58
10992;BME280;5549;47.028;15.514;2022-07-29T05:28:01;96521.94;;;22.40;61.18
10992;BME280;5549;47.028;15.514;2022-07-29T05:30:28;96531.22;;;22.44;61.23
10992;BME280;5549;47.028;15.514;2022-07-29T05:32:56;96543.16;;;22.48;61.16
10992;BME280;5549;47.028;15.514;2022-07-29T05:35:24;96533.13;;;22.57;60.86
10992;BME280;5549;47.028;15.514;2022-07-29T05:37:51;96536.41;;;22.65;60.89
10992;BME280;5549;47.028;15.514;2022-07-29T05:40:21;96540.53;;;22.75;60.50
10992;BME280;5549;47.028;15.514;2022-07-29T05:42:49;96539.75;;;22.81;60.78
10992;BME280;5549;47.028;15.514;2022-07-29T05:45:18;96543.25;;;22.88;60.88
10992;BME280;5549;47.028;15.514;2022-07-29T05:47:46;96546.13;;;22.93;60.55
10992;BME280;5549;47.028;15.514;2022-07-29T05:50:16;96531.31;;;22.97;60.36
10992;BME280;5549;47.028;15.514;2022-07-29T05:52:43;96538.50;;;23.03;60.22
10992;BME280;5549;47.028;15.514;2022-07-29T05:55:13;96538.09;;;23.13;60.21
10992;BME280;5549;47.028;15.514;2022-07-29T05:57:41;96539.72;;;23.20;59.88
10992;BME280;5549;47.028;15.514;2022-07-29T06:00:11;96542.38;;;23.33;59.36
10992;BME280;5549;47.028;15.514;2022-07-29T06:02:42;96533.50;;;23.40;59.26
10992;BME280;5549;47.028;15.514;2022-07-29T06:05:12;96530.78;;;23.53;58.88
10992;BME280;5549;47.028;15.514;2022-07-29T06:07:42;96535.09;;;23.67;59.09
10992;BME280;5549;47.028;15.514;2022-07-29T06:10:12;96536.47;;;23.83;58.60
10992;BME280;5549;47.028;15.514;2022-07-29T06:12:39;96532.50;;;23.98;58.47
10992;BME280;5549;47.028;15.514;2022-07-29T06:15:09;96533.03;;;24.14;58.22
10992;BME280;5549;47.028;15.514;2022-07-29T06:17:39;96539.59;;;24.24;57.87
10992;BME280;5549;47.028;15.514;2022-07-29T06:20:09;96545.78;;;24.25;57.46
10992;BME280;5549;47.028;15.514;2022-07-29T06:22:38;96543.72;;;24.34;56.99
10992;BME280;5549;47.028;15.514;2022-07-29T06:25:09;96547.16;;;24.47;56.47
10992;BME280;5549;47.028;15.514;2022-07-29T06:27:37;96544.00;;;24.57;56.48
10992;BME280;5549;47.028;15.514;2022-07-29T06:30:06;96550.03;;;24.77;57.03
10992;BME280;5549;47.028;15.514;2022-07-29T06:32:36;96548.66;;;25.00;57.33
10992;BME280;5549;47.028;15.514;2022-07-29T06:35:12;96539.66;;;25.12;55.42
10992;BME280;5549;47.028;15.514;2022-07-29T06:37:40;96545.56;;;25.21;55.35
10992;BME280;5549;47.028;15.514;2022-07-29T06:40:11;96547.31;;;25.34;54.40
10992;BME280;5549;47.028;15.514;2022-07-29T06:42:56;96542.16;;;25.50;55.19
10992;BME280;5549;47.028;15.514;2022-07-29T06:45:24;96542.03;;;25.64;53.95
10992;BME280;5549;47.028;15.514;2022-07-29T06:47:54;96542.13;;;25.75;54.53
10992;BME280;5549;47.028;15.514;2022-07-29T06:50:23;96539.94;;;25.84;52.75
10992;BME280;5549;47.028;15.514;2022-07-29T06:52:50;96551.00;;;25.94;52.98
10992;BME280;5549;47.028;15.514;2022-07-29T06:55:20;96539.56;;;25.99;52.80
10992;BME280;5549;47.028;15.514;2022-07-29T06:57:50;96539.94;;;26.20;52.52
10992;BME280;5549;47.028;15.514;2022-07-29T07:00:18;96540.88;;;26.26;51.61
10992;BME280;5549;47.028;15.514;2022-07-29T07:02:45;96539.50;;;26.53;50.45
10992;BME280;5549;47.028;15.514;2022-07-29T07:05:16;96542.13;;;26.72;50.94
10992;BME280;5549;47.028;15.514;2022-07-29T07:07:45;96541.31;;;26.83;49.11
10992;BME280;5549;47.028;15.514;2022-07-29T07:10:14;96546.66;;;27.01;50.03
10992;BME280;5549;47.028;15.514;2022-07-29T07:12:44;96543.63;;;27.09;48.58
10992;BME280;5549;47.028;15.514;2022-07-29T07:15:11;96546.53;;;27.20;48.09
10992;BME280;5549;47.028;15.514;2022-07-29T07:17:41;96538.22;;;27.33;48.55
10992;BME280;5549;47.028;15.514;2022-07-29T07:20:10;96536.81;;;27.42;48.76
10992;BME280;5549;47.028;15.514;2022-07-29T07:22:37;96535.75;;;27.66;48.76
10992;BME280;5549;47.028;15.514;2022-07-29T07:25:07;96536.31;;;27.92;48.24
10992;BME280;5549;47.028;15.514;2022-07-29T07:27:36;96535.22;;;28.04;46.21
10992;BME280;5549;47.028;15.514;2022-07-29T07:30:07;96542.84;;;28.07;47.78
10992;BME280;5549;47.028;15.514;2022-07-29T07:32:35;96536.94;;;28.22;46.05
10992;BME280;5549;47.028;15.514;2022-07-29T07:35:05;96543.88;;;28.18;46.42
10992;BME280;5549;47.028;15.514;2022-07-29T07:37:33;96543.91;;;28.47;46.35
10992;BME280;5549;47.028;15.514;2022-07-29T07:40:02;96541.50;;;28.79;46.09
10992;BME280;5549;47.028;15.514;2022-07-29T07:42:32;96546.63;;;29.09;46.10
10992;BME280;5549;47.028;15.514;2022-07-29T07:45:00;96546.28;;;29.22;43.90
10992;BME280;5549;47.028;15.514;2022-07-29T07:47:31;96547.34;;;29.04;41.87
10992;BME280;5549;47.028;15.514;2022-07-29T07:49:59;96550.06;;;29.21;41.75
10992;BME280;5549;47.028;15.514;2022-07-29T07:52:27;96547.91;;;29.23;40.11
10992;BME280;5549;47.028;15.514;2022-07-29T07:54:57;96552.41;;;29.34;42.94
10992;BME280;5549;47.028;15.514;2022-07-29T07:57:28;96555.22;;;29.22;40.93
10992;BME280;5549;47.028;15.514;2022-07-29T08:00:01;96556.25;;;29.38;41.97
10992;BME280;5549;47.028;15.514;2022-07-29T08:02:32;96546.78;;;29.52;41.49
10992;BME280;5549;47.028;15.514;2022-07-29T08:05:00;96537.44;;;29.60;39.66
10992;BME280;5549;47.028;15.514;2022-07-29T08:07:27;96545.44;;;29.72;42.12
10992;BME280;5549;47.028;15.514;2022-07-29T08:09:55;96552.00;;;29.42;39.82
10992;BME280;5549;47.028;15.514;2022-07-29T08:12:22;96553.00;;;29.36;41.10
10992;BME280;5549;47.028;15.514;2022-07-29T08:14:50;96548.41;;;29.20;40.93
10992;BME280;5549;47.028;15.514;2022-07-29T08:17:19;96548.06;;;29.33;38.81
10992;BME280;5549;47.028;15.514;2022-07-29T08:19:46;96548.94;;;29.50;39.38
10992;BME280;5549;47.028;15.514;2022-07-29T08:22:14;96552.75;;;29.93;41.10
10992;BME280;5549;47.028;15.514;2022-07-29T08:24:42;96553.28;;;30.12;37.00
10992;BME280;5549;47.028;15.514;2022-07-29T08:27:10;96546.59;;;30.19;38.69
10992;BME280;5549;47.028;15.514;2022-07-29T08:29:38;96550.56;;;30.33;38.78
10992;BME280;5549;47.028;15.514;2022-07-29T08:32:06;96545.09;;;30.28;36.60
10992;BME280;5549;47.028;15.514;2022-07-29T08:34:37;96553.59;;;30.15;36.43
10992;BME280;5549;47.028;15.514;2022-07-29T08:37:04;96550.44;;;30.23;37.13
10992;BME280;5549;47.028;15.514;2022-07-29T08:39:32;96553.91;;;30.19;36.60
10992;BME280;5549;47.028;15.514;2022-07-29T08:42:00;96561.44;;;30.39;36.79
10992;BME280;5549;47.028;15.514;2022-07-29T08:44:28;96558.09;;;30.53;37.68
10992;BME280;5549;47.028;15.514;2022-07-29T08:46:57;96564.22;;;30.44;37.40
10992;BME280;5549;47.028;15.514;2022-07-29T08:49:25;96567.44;;;30.62;34.62
10992;BME280;5549;47.028;15.514;2022-07-29T08:51:57;96557.72;;;30.67;35.32
10992;BME280;5549;47.028;15.514;2022-07-29T08:54:25;96557.81;;;30.77;37.06
10992;BME280;5549;47.028;15.514;2022-07-29T08:56:56;96576.16;;;30.70;35.40
10992;BME280;5549;47.028;15.514;2022-07-29T08:59:27;96575.34;;;30.69;35.86
10992;BME280;5549;47.028;15.514;2022-07-29T09:01:57;96576.38;;;30.63;34.97
10992;BME280;5549;47.028;15.514;2022-07-29T09:04:30;96580.22;;;30.45;35.34
10992;BME280;5549;47.028;15.514;2022-07-29T09:07:05;96574.13;;;30.33;35.48
10992;BME280;5549;47.028;15.514;2022-07-29T09:09:34;96579.81;;;29.93;34.87
10992;BME280;5549;47.028;15.514;2022-07-29T09:12:02;96586.44;;;29.80;35.96
10992;BME280;5549;47.028;15.514;2022-07-29T09:14:32;96585.53;;;29.75;36.86
10992;BME280;5549;47.028;15.514;2022-07-29T09:17:02;96582.84;;;29.75;37.67
10992;BME280;5549;47.028;15.514;2022-07-29T09:19:31;96584.81;;;29.62;37.02
10992;BME280;5549;47.028;15.514;2022-07-29T09:22:06;96586.00;;;29.50;37.88
10992;BME280;5549;47.028;15.514;2022-07-29T09:24:41;96584.22;;;29.27;38.46
10992;BME280;5549;47.028;15.514;2022-07-29T09:27:26;96593.31;;;29.21;38.54
10992;BME280;5549;47.028;15.514;2022-07-29T09:29:59;96582.59;;;29.09;38.62
10992;BME280;5549;47.028;15.514;2022-07-29T09:32:28;96586.44;;;28.96;39.38
10992;BME280;5549;47.028;15.514;2022-07-29T09:35:15;96592.47;;;28.87;39.84
10992;BME280;5549;47.028;15.514;2022-07-29T09:37:45;96591.91;;;28.85;40.77
10992;BME280;5549;47.028;15.514;2022-07-29T09:40:15;96593.09;;;28.77;40.76
10992;BME280;5549;47.028;15.514;2022-07-29T09:42:46;96590.63;;;28.75;40.72
10992;BME280;5549;47.028;15.514;2022-07-29T09:45:27;96584.22;;;28.65;41.21
10992;BME280;5549;47.028;15.514;2022-07-29T09:47:58;96580.69;;;28.64;42.33
10992;BME280;5549;47.028;15.514;2022-07-29T09:50:37;96570.81;;;28.70;41.86
10992;BME280;5549;47.028;15.514;2022-07-29T09:53:09;96585.56;;;28.79;42.33
10992;BME280;5549;47.028;15.514;2022-07-29T09:55:48;96580.16;;;28.79;41.86
10992;BME280;5549;47.028;15.514;2022-07-29T09:58:20;96579.66;;;28.82;40.86
10992;BME280;5549;47.028;15.514;2022-07-29T10:00:50;96575.44;;;28.86;41.11
10992;BME280;5549;47.028;15.514;2022-07-29T10:03:23;96576.09;;;28.93;41.64
10992;BME280;5549;47.028;15.514;2022-07-29T10:06:07;96579.56;;;29.05;41.35
10992;BME280;5549;47.028;15.514;2022-07-29T10:08:40;96584.47;;;29.09;40.23
10992;BME280;5549;47.028;15.514;2022-07-29T10:11:13;96589.06;;;29.08;41.25
10992;BME280;5549;47.028;15.514;2022-07-29T10:13:47;96584.53;;;28.97;38.63
10992;BME280;5549;47.028;15.514;2022-07-29T10:16:17;96578.56;;;28.95;38.58
10992;BME280;5549;47.028;15.514;2022-07-29T10:18:48;96584.13;;;28.88;39.33
10992;BME280;5549;47.028;15.514;2022-07-29T10:21:17;96580.38;;;28.89;39.08
10992;BME280;5549;47.028;15.514;2022-07-29T10:23:46;96583.44;;;28.81;39.74
10992;BME280;5549;47.028;15.514;2022-07-29T10:26:16;96582.84;;;28.79;39.97
10992;BME280;5549;47.028;15.514;2022-07-29T10:28:43;96582.19;;;28.72;40.69
10992;BME280;5549;47.028;15.514;2022-07-29T10:31:22;96578.31;;;28.68;41.02
10992;BME280;5549;47.028;15.514;2022-07-29T10:34:04;96574.00;;;28.67;39.97
10992;BME280;5549;47.028;15.514;2022-07-29T10:36:53;96573.56;;;28.58;41.18
10992;BME280;5549;47.028;15.514;2022-07-29T10:39:42;96570.44;;;28.50;40.53
10992;BME280;5549;47.028;15.514;2022-07-29T10:42:18;96570.44;;;28.50;41.55
10992;BME280;5549;47.028;15.514;2022-07-29T10:44:48;96562.91;;;28.52;42.27
10992;BME280;5549;47.028;15.514;2022-07-29T10:47:23;96563.81;;;28.57;42.27
10992;BME280;5549;47.028;15.514;2022-07-29T10:49:58;96554.66;;;28.58;41.58
10992;BME280;5549;47.028;15.514;2022-07-29T10:52:54;96553.91;;;28.63;41.38
10992;BME280;5549;47.028;15.514;2022-07-29T10:55:36;96557.28;;;28.70;41.61
10992;BME280;5549;47.028;15.514;2022-07-29T10:58:13;96558.03;;;28.82;42.16
10992;BME280;5549;47.028;15.514;2022-07-29T11:00:41;96560.69;;;28.94;42.17
10992;BME280;5549;47.028;15.514;2022-07-29T11:03:44;96549.00;;;29.05;40.04
10992;BME280;5549;47.028;15.514;2022-07-29T11:06:15;96547.69;;;29.08;39.14
10992;BME280;5549;47.028;15.514;2022-07-29T11:08:45;96546.84;;;29.07;39.60
10992;BME280;5549;47.028;15.514;2022-07-29T11:11:37;96545.97;;;29.01;37.77
10992;BME280;5549;47.028;15.514;2022-07-29T11:14:07;96549.25;;;29.03;39.47
10992;BME280;5549;47.028;15.514;2022-07-29T11:17:00;96551.03;;;29.15;38.23
10992;BME280;5549;47.028;15.514;2022-07-29T11:19:30;96543.00;;;29.20;38.78
10992;BME280;5549;47.028;15.514;2022-07-29T11:22:00;96541.53;;;29.29;38.01
10992;BME280;5549;47.028;15.514;2022-07-29T11:24:29;96545.53;;;29.26;36.58
10992;BME280;5549;47.028;15.514;2022-07-29T11:27:14;96542.84;;;29.43;38.72
10992;BME280;5549;47.028;15.514;2022-07-29T11:29:56;96537.69;;;29.58;36.60
10992;BME280;5549;47.028;15.514;2022-07-29T11:32:25;96532.59;;;29.84;36.11
10992;BME280;5549;47.028;15.514;2022-07-29T11:35:12;96535.69;;;29.92;36.76
10992;BME280;5549;47.028;15.514;2022-07-29T11:37:42;96534.31;;;30.12;37.35
10992;BME280;5549;47.028;15.514;2022-07-29T11:40:16;96538.03;;;30.27;35.23
10992;BME280;5549;47.028;15.514;2022-07-29T11:42:50;96532.97;;;30.36;35.37
10992;BME280;5549;47.028;15.514;2022-07-29T11:45:23;96532.22;;;30.41;34.20
10992;BME280;5549;47.028;15.514;2022-07-29T11:47:56;96526.47;;;30.59;34.83
10992;BME280;5549;47.028;15.514;2022-07-29T11:50:34;96527.13;;;30.71;35.25
10992;BME280;5549;47.028;15.514;2022-07-29T11:53:12;96529.78;;;30.66;36.27
10992;BME280;5549;47.028;15.514;2022-07-29T11:55:41;96527.63;;;30.68;37.14
10992;BME280;5549;47.028;15.514;2022-07-29T11:58:13;96517.31;;;30.65;36.11
10992;BME280;5549;47.028;15.514;2022-07-29T12:00:46;96522.22;;;30.68;37.03
10992;BME280;5549;47.028;15.514;2022-07-29T12:03:25;96525.00;;;30.78;37.17
10992;BME280;5549;47.028;15.514;2022-07-29T12:05:55;96527.50;;;30.85;37.30
10992;BME280;5549;47.028;15.514;2022-07-29T12:08:23;96526.47;;;30.91;36.34
10992;BME280;5549;47.028;15.514;2022-07-29T12:10:54;96525.44;;;30.65;34.33
10992;BME280;5549;47.028;15.514;2022-07-29T12:13:25;96535.34;;;30.81;38.24
10992;BME280;5549;47.028;15.514;2022-07-29T12:16:07;96523.03;;;31.01;34.35
10992;BME280;5549;47.028;15.514;2022-07-29T12:18:37;96521.72;;;31.35;36.17
10992;BME280;5549;47.028;15.514;2022-07-29T12:21:05;96525.59;;;31.49;35.70
10992;BME280;5549;47.028;15.514;2022-07-29T12:23:34;96523.81;;;31.23;35.40
10992;BME280;5549;47.028;15.514;2022-07-29T12:26:04;96519.75;;;31.25;36.20
10992;BME280;5549;47.028;15.514;2022-07-29T12:28:38;96516.34;;;31.13;34.96
10992;BME280;5549;47.028;15.514;2022-07-29T12:31:13;96513.88;;;31.12;35.80
10992;BME280;5549;47.028;15.514;2022-07-29T12:33:42;96516.31;;;31.08;36.49
10992;BME280;5549;47.028;15.514;2022-07-29T12:36:09;96517.94;;;31.09;36.80
10992;BME280;5549;47.028;15.514;2022-07-29T12:38:40;96521.72;;;31.08;36.14
10992;BME280;5549;47.028;15.514;2022-07-29T12:41:08;96514.94;;;31.06;37.00
10992;BME280;5549;47.028;15.514;2022-07-29T12:43:37;96518.16;;;31.03;37.08
10992;BME280;5549;47.028;15.514;2022-07-29T12:46:13;96516.81;;;31.05;35.45
10992;BME280;5549;47.028;15.514;2022-07-29T12:48:42;96514.78;;;31.17;35.25
10992;BME280;5549;47.028;15.514;2022-07-29T12:51:12;96511.06;;;31.23;35.18
10992;BME280;5549;47.028;15.514;2022-07-29T12:54:04;96510.34;;;31.38;36.50
10992;BME280;5549;47.028;15.514;2022-07-29T12:56:35;96512.38;;;31.63;36.52
10992;BME280;5549;47.028;15.514;2022-07-29T12:59:14;96505.31;;;31.62;34.00
10992;BME280;5549;47.028;15.514;2022-07-29T13:01:45;96502.34;;;31.64;34.00
10992;BME280;5549;47.028;15.514;2022-07-29T13:04:35;96497.13;;;31.57;32.59
10992;BME280;5549;47.028;15.514;2022-07-29T13:07:06;96497.88;;;31.42;34.13
10992;BME280;5549;47.028;15.514;2022-07-29T13:09:39;96496.22;;;31.36;34.33
10992;BME280;5549;47.028;15.514;2022-07-29T13:12:08;96498.31;;;31.24;33.42
10992;BME280;5549;47.028;15.514;2022-07-29T13:14:39;96502.28;;;31.16;33.64
10992;BME280;5549;47.028;15.514;2022-07-29T13:17:12;96506.31;;;31.14;33.93
10992;BME280;5549;47.028;15.514;2022-07-29T13:19:45;96497.28;;;31.03;37.46
10992;BME280;5549;47.028;15.514;2022-07-29T13:22:16;96497.81;;;31.00;36.97
10992;BME280;5549;47.028;15.514;2022-07-29T13:24:49;96499.47;;;31.06;37.02